Olney, Maryland
Current Conditions -  °F | °C
As of 11:15 AM on Thursday 27 Nov 2014 (Local Time) from KGAI Reporting Station
Broken Clouds Broken Clouds  
Wind Chill: 34°   Ceiling: 1900
Heat Index: 39°   Visibility: 10mi
Dew Point: 34°   Wind: 7mph
Humidity: 81%   Direction: 310°NW
Pressure: 30.08"   Gusts: NA
Location:  39.15°N, 77.07°W
Report Text: KGAI 271615Z 31006KT 10SM BKN019 BKN060 04/01 A3008 RMK AO1
Loading
Personal Weather Stations






























Interactive Weather Map New forecast layout! Learn more

10-Day Weather Forecast

Advertisements
Track Severe Weather on mobile